Terminal Aerodrome Forecast
Issued by NWS

Home | Current Version | Previous Version | Text Only | Print | Product List | Glossary On
Versions: 1 2 3 4 5 6 7 8 9 10 11 12 13 14 15 16 17 18 19 20
000
FTUS46 KMTR 270500
TAFSNS
TAF
KSNS 270525Z 2706/2806 27007KT P6SM OVC012
     FM271200 VRB04KT P6SM BKN009 OVC015
     FM271900 29012KT P6SM SCT015
     FM280300 24007KT P6SM BKN012=

USA.gov is the U.S. government's official web portal to all federal, state and local government web resources and services.